sensor_id;sensor_type;location;lat;lon;timestamp;temperature;humidity
53208;DHT22;39093;52.788;6.940;2023-04-03T00:00:35;3.90;99.90
53208;DHT22;39093;52.788;6.940;2023-04-03T00:03:03;3.80;99.90
53208;DHT22;39093;52.788;6.940;2023-04-03T00:05:30;3.80;99.90
53208;DHT22;39093;52.788;6.940;2023-04-03T00:07:56;3.80;99.90
53208;DHT22;39093;52.788;6.940;2023-04-03T00:10:23;3.80;99.90
53208;DHT22;39093;52.788;6.940;2023-04-03T00:12:50;3.70;99.90
53208;DHT22;39093;52.788;6.940;2023-04-03T00:15:17;3.70;99.90
53208;DHT22;39093;52.788;6.940;2023-04-03T00:17:44;3.70;99.90
53208;DHT22;39093;52.788;6.940;2023-04-03T00:20:12;3.60;99.90
53208;DHT22;39093;52.788;6.940;2023-04-03T00:22:39;3.90;99.90
53208;DHT22;39093;52.788;6.940;2023-04-03T00:25:07;3.60;99.90
53208;DHT22;39093;52.788;6.940;2023-04-03T00:27:37;3.50;99.90
53208;DHT22;39093;52.788;6.940;2023-04-03T00:30:05;3.60;99.90
53208;DHT22;39093;52.788;6.940;2023-04-03T00:32:33;3.50;99.90
53208;DHT22;39093;52.788;6.940;2023-04-03T00:35:00;3.50;99.90
53208;DHT22;39093;52.788;6.940;2023-04-03T00:37:26;3.50;99.90
53208;DHT22;39093;52.788;6.940;2023-04-03T00:39:53;3.40;99.90
53208;DHT22;39093;52.788;6.940;2023-04-03T00:42:21;3.50;99.90
53208;DHT22;39093;52.788;6.940;2023-04-03T00:47:17;3.30;99.90
53208;DHT22;39093;52.788;6.940;2023-04-03T00:49:44;3.30;99.90
53208;DHT22;39093;52.788;6.940;2023-04-03T00:52:15;3.40;99.90
53208;DHT22;39093;52.788;6.940;2023-04-03T00:54:44;3.20;99.90
53208;DHT22;39093;52.788;6.940;2023-04-03T00:57:12;3.20;99.90
53208;DHT22;39093;52.788;6.940;2023-04-03T00:59:43;3.20;99.90
53208;DHT22;39093;52.788;6.940;2023-04-03T01:02:11;3.20;99.90
53208;DHT22;39093;52.788;6.940;2023-04-03T01:04:43;3.10;99.90
53208;DHT22;39093;52.788;6.940;2023-04-03T01:07:17;3.10;99.90
53208;DHT22;39093;52.788;6.940;2023-04-03T01:09:45;3.00;99.90
53208;DHT22;39093;52.788;6.940;2023-04-03T01:14:45;3.00;99.90
53208;DHT22;39093;52.788;6.940;2023-04-03T01:20:02;2.90;99.90
53208;DHT22;39093;52.788;6.940;2023-04-03T01:22:48;2.90;99.90
53208;DHT22;39093;52.788;6.940;2023-04-03T01:25:21;2.80;99.90
53208;DHT22;39093;52.788;6.940;2023-04-03T01:27:48;2.80;99.90
53208;DHT22;39093;52.788;6.940;2023-04-03T01:30:18;2.80;99.90
53208;DHT22;39093;52.788;6.940;2023-04-03T01:32:45;2.80;99.90
53208;DHT22;39093;52.788;6.940;2023-04-03T01:35:12;2.70;99.90
53208;DHT22;39093;52.788;6.940;2023-04-03T01:37:39;2.70;99.90
53208;DHT22;39093;52.788;6.940;2023-04-03T01:40:06;2.70;99.90
53208;DHT22;39093;52.788;6.940;2023-04-03T01:42:33;2.70;99.90
53208;DHT22;39093;52.788;6.940;2023-04-03T01:45:01;2.70;99.90
53208;DHT22;39093;52.788;6.940;2023-04-03T01:47:27;2.70;99.90
53208;DHT22;39093;52.788;6.940;2023-04-03T01:49:54;2.70;99.90
53208;DHT22;39093;52.788;6.940;2023-04-03T01:52:21;2.60;99.90
53208;DHT22;39093;52.788;6.940;2023-04-03T01:54:48;2.60;99.90
53208;DHT22;39093;52.788;6.940;2023-04-03T01:57:15;2.60;99.90
53208;DHT22;39093;52.788;6.940;2023-04-03T01:59:42;2.60;99.90
53208;DHT22;39093;52.788;6.940;2023-04-03T02:02:09;2.60;99.90
53208;DHT22;39093;52.788;6.940;2023-04-03T02:04:39;2.60;99.90
53208;DHT22;39093;52.788;6.940;2023-04-03T02:07:06;2.50;99.90
53208;DHT22;39093;52.788;6.940;2023-04-03T02:09:33;2.50;99.90
53208;DHT22;39093;52.788;6.940;2023-04-03T02:12:00;2.50;99.90
53208;DHT22;39093;52.788;6.940;2023-04-03T02:14:26;2.50;99.90
53208;DHT22;39093;52.788;6.940;2023-04-03T02:16:54;2.50;99.90
53208;DHT22;39093;52.788;6.940;2023-04-03T02:19:21;2.50;99.90
53208;DHT22;39093;52.788;6.940;2023-04-03T02:21:48;2.40;99.90
53208;DHT22;39093;52.788;6.940;2023-04-03T02:24:15;2.40;99.90
53208;DHT22;39093;52.788;6.940;2023-04-03T02:26:42;2.40;99.90
53208;DHT22;39093;52.788;6.940;2023-04-03T02:29:08;2.40;99.90
53208;DHT22;39093;52.788;6.940;2023-04-03T02:31:35;2.40;99.90
53208;DHT22;39093;52.788;6.940;2023-04-03T02:34:02;2.40;99.90
53208;DHT22;39093;52.788;6.940;2023-04-03T02:36:29;2.30;99.90
53208;DHT22;39093;52.788;6.940;2023-04-03T02:38:58;2.30;99.90
53208;DHT22;39093;52.788;6.940;2023-04-03T02:41:25;2.30;99.90
53208;DHT22;39093;52.788;6.940;2023-04-03T02:43:58;2.30;99.90
53208;DHT22;39093;52.788;6.940;2023-04-03T02:46:25;2.20;99.90
53208;DHT22;39093;52.788;6.940;2023-04-03T02:48:52;2.20;99.90
53208;DHT22;39093;52.788;6.940;2023-04-03T02:51:19;2.20;99.90
53208;DHT22;39093;52.788;6.940;2023-04-03T02:53:46;2.20;99.90
53208;DHT22;39093;52.788;6.940;2023-04-03T02:56:12;2.10;99.90
53208;DHT22;39093;52.788;6.940;2023-04-03T02:58:39;2.10;99.90
53208;DHT22;39093;52.788;6.940;2023-04-03T03:01:06;2.10;99.90
53208;DHT22;39093;52.788;6.940;2023-04-03T03:03:34;2.10;99.90
53208;DHT22;39093;52.788;6.940;2023-04-03T03:06:05;2.10;99.90
53208;DHT22;39093;52.788;6.940;2023-04-03T03:08:32;2.00;99.90
53208;DHT22;39093;52.788;6.940;2023-04-03T03:10:59;2.00;99.90
53208;DHT22;39093;52.788;6.940;2023-04-03T03:13:26;2.00;99.90
53208;DHT22;39093;52.788;6.940;2023-04-03T03:15:53;2.00;99.90
53208;DHT22;39093;52.788;6.940;2023-04-03T03:18:21;2.10;99.90
53208;DHT22;39093;52.788;6.940;2023-04-03T03:20:52;1.90;99.90
53208;DHT22;39093;52.788;6.940;2023-04-03T03:23:20;1.90;99.90
53208;DHT22;39093;52.788;6.940;2023-04-03T03:25:47;1.80;99.90
53208;DHT22;39093;52.788;6.940;2023-04-03T03:28:14;1.80;99.90
53208;DHT22;39093;52.788;6.940;2023-04-03T03:30:41;1.70;99.90
53208;DHT22;39093;52.788;6.940;2023-04-03T03:33:08;1.70;99.90
53208;DHT22;39093;52.788;6.940;2023-04-03T03:35:35;1.70;99.90
53208;DHT22;39093;52.788;6.940;2023-04-03T03:38:02;1.60;99.90
53208;DHT22;39093;52.788;6.940;2023-04-03T03:40:29;1.60;99.90
53208;DHT22;39093;52.788;6.940;2023-04-03T03:42:56;1.60;99.90
53208;DHT22;39093;52.788;6.940;2023-04-03T03:45:22;1.60;99.90
53208;DHT22;39093;52.788;6.940;2023-04-03T03:47:49;1.70;99.90
53208;DHT22;39093;52.788;6.940;2023-04-03T03:50:16;1.50;99.90
53208;DHT22;39093;52.788;6.940;2023-04-03T03:52:43;1.50;99.90
53208;DHT22;39093;52.788;6.940;2023-04-03T03:55:11;1.50;99.90
53208;DHT22;39093;52.788;6.940;2023-04-03T03:57:38;1.50;99.90
53208;DHT22;39093;52.788;6.940;2023-04-03T04:00:06;1.40;99.90
53208;DHT22;39093;52.788;6.940;2023-04-03T04:02:34;1.50;99.90
53208;DHT22;39093;52.788;6.940;2023-04-03T04:05:01;1.40;99.90
53208;DHT22;39093;52.788;6.940;2023-04-03T04:07:28;1.40;99.90
53208;DHT22;39093;52.788;6.940;2023-04-03T04:09:55;1.30;99.90
53208;DHT22;39093;52.788;6.940;2023-04-03T04:12:22;1.40;99.90
53208;DHT22;39093;52.788;6.940;2023-04-03T04:14:49;1.30;99.90
53208;DHT22;39093;52.788;6.940;2023-04-03T04:17:16;1.30;99.90
53208;DHT22;39093;52.788;6.940;2023-04-03T04:19:43;1.30;99.90
53208;DHT22;39093;52.788;6.940;2023-04-03T04:22:10;1.30;99.90
53208;DHT22;39093;52.788;6.940;2023-04-03T04:24:37;1.30;99.90
53208;DHT22;39093;52.788;6.940;2023-04-03T04:27:05;1.20;99.90
53208;DHT22;39093;52.788;6.940;2023-04-03T04:29:32;1.20;99.90
53208;DHT22;39093;52.788;6.940;2023-04-03T04:32:03;1.20;99.90
53208;DHT22;39093;52.788;6.940;2023-04-03T04:34:30;1.40;99.90
53208;DHT22;39093;52.788;6.940;2023-04-03T04:36:57;1.20;99.90
53208;DHT22;39093;52.788;6.940;2023-04-03T04:39:24;1.20;99.90
53208;DHT22;39093;52.788;6.940;2023-04-03T04:41:51;1.20;99.90
53208;DHT22;39093;52.788;6.940;2023-04-03T04:44:18;1.20;99.90
53208;DHT22;39093;52.788;6.940;2023-04-03T04:46:44;1.20;99.90
53208;DHT22;39093;52.788;6.940;2023-04-03T04:49:12;1.10;99.90
53208;DHT22;39093;52.788;6.940;2023-04-03T04:51:39;1.10;99.90
53208;DHT22;39093;52.788;6.940;2023-04-03T04:54:17;1.10;99.90
53208;DHT22;39093;52.788;6.940;2023-04-03T04:56:44;1.10;99.90
53208;DHT22;39093;52.788;6.940;2023-04-03T04:59:12;1.10;99.90
53208;DHT22;39093;52.788;6.940;2023-04-03T05:01:39;1.10;99.90
53208;DHT22;39093;52.788;6.940;2023-04-03T05:04:06;1.10;99.90
53208;DHT22;39093;52.788;6.940;2023-04-03T05:06:33;1.10;99.90
53208;DHT22;39093;52.788;6.940;2023-04-03T05:09:01;1.30;99.90
53208;DHT22;39093;52.788;6.940;2023-04-03T05:11:28;1.10;99.90
53208;DHT22;39093;52.788;6.940;2023-04-03T05:13:55;1.00;99.90
53208;DHT22;39093;52.788;6.940;2023-04-03T05:16:22;1.00;99.90
53208;DHT22;39093;52.788;6.940;2023-04-03T05:18:49;1.00;99.90
53208;DHT22;39093;52.788;6.940;2023-04-03T05:21:16;1.00;99.90
53208;DHT22;39093;52.788;6.940;2023-04-03T05:23:44;1.00;99.90
53208;DHT22;39093;52.788;6.940;2023-04-03T05:26:11;1.00;99.90
53208;DHT22;39093;52.788;6.940;2023-04-03T05:28:38;1.00;99.90
53208;DHT22;39093;52.788;6.940;2023-04-03T05:31:05;1.00;99.90
53208;DHT22;39093;52.788;6.940;2023-04-03T05:33:32;1.00;99.90
53208;DHT22;39093;52.788;6.940;2023-04-03T05:36:05;1.10;99.90
53208;DHT22;39093;52.788;6.940;2023-04-03T05:38:32;1.00;99.90
53208;DHT22;39093;52.788;6.940;2023-04-03T05:40:59;1.00;99.90
53208;DHT22;39093;52.788;6.940;2023-04-03T05:43:26;1.10;99.90
53208;DHT22;39093;52.788;6.940;2023-04-03T05:45:53;1.10;99.90
53208;DHT22;39093;52.788;6.940;2023-04-03T05:48:20;1.20;99.90
53208;DHT22;39093;52.788;6.940;2023-04-03T05:50:47;1.20;99.90
53208;DHT22;39093;52.788;6.940;2023-04-03T05:53:27;1.20;99.90
53208;DHT22;39093;52.788;6.940;2023-04-03T05:55:55;1.20;99.90
53208;DHT22;39093;52.788;6.940;2023-04-03T05:58:21;1.30;99.90
53208;DHT22;39093;52.788;6.940;2023-04-03T06:00:48;1.20;99.90
53208;DHT22;39093;52.788;6.940;2023-04-03T06:03:15;1.20;99.90
53208;DHT22;39093;52.788;6.940;2023-04-03T06:05:43;1.20;99.90
53208;DHT22;39093;52.788;6.940;2023-04-03T06:08:10;1.20;99.90
53208;DHT22;39093;52.788;6.940;2023-04-03T06:10:37;1.30;99.90
53208;DHT22;39093;52.788;6.940;2023-04-03T06:13:04;1.30;99.90
53208;DHT22;39093;52.788;6.940;2023-04-03T06:15:32;1.30;99.90
53208;DHT22;39093;52.788;6.940;2023-04-03T06:18:00;1.30;99.90
53208;DHT22;39093;52.788;6.940;2023-04-03T06:20:27;1.30;99.90
53208;DHT22;39093;52.788;6.940;2023-04-03T06:22:54;1.30;99.90
53208;DHT22;39093;52.788;6.940;2023-04-03T06:25:21;1.30;99.90
53208;DHT22;39093;52.788;6.940;2023-04-03T06:27:48;1.40;99.90
53208;DHT22;39093;52.788;6.940;2023-04-03T06:30:15;1.40;99.90
53208;DHT22;39093;52.788;6.940;2023-04-03T06:32:42;1.40;99.90
53208;DHT22;39093;52.788;6.940;2023-04-03T06:35:10;1.50;99.90
53208;DHT22;39093;52.788;6.940;2023-04-03T06:37:37;1.50;99.90
53208;DHT22;39093;52.788;6.940;2023-04-03T06:40:04;1.50;99.90
53208;DHT22;39093;52.788;6.940;2023-04-03T06:42:32;1.60;99.90
53208;DHT22;39093;52.788;6.940;2023-04-03T06:44:58;1.60;99.90
53208;DHT22;39093;52.788;6.940;2023-04-03T06:47:25;1.60;99.90
53208;DHT22;39093;52.788;6.940;2023-04-03T06:49:52;1.70;99.90
53208;DHT22;39093;52.788;6.940;2023-04-03T06:52:19;1.70;99.90
53208;DHT22;39093;52.788;6.940;2023-04-03T06:54:47;1.70;99.90
53208;DHT22;39093;52.788;6.940;2023-04-03T06:57:14;1.80;99.90
53208;DHT22;39093;52.788;6.940;2023-04-03T06:59:42;2.00;99.90
53208;DHT22;39093;52.788;6.940;2023-04-03T07:02:10;1.80;99.90
53208;DHT22;39093;52.788;6.940;2023-04-03T07:04:38;1.80;99.90
53208;DHT22;39093;52.788;6.940;2023-04-03T07:07:05;1.80;99.90
53208;DHT22;39093;52.788;6.940;2023-04-03T07:09:32;1.90;99.90
53208;DHT22;39093;52.788;6.940;2023-04-03T07:11:59;2.00;99.90
53208;DHT22;39093;52.788;6.940;2023-04-03T07:14:26;2.00;99.90
53208;DHT22;39093;52.788;6.940;2023-04-03T07:16:53;2.00;99.90
53208;DHT22;39093;52.788;6.940;2023-04-03T07:19:21;2.10;99.90
53208;DHT22;39093;52.788;6.940;2023-04-03T07:21:48;2.10;99.90
53208;DHT22;39093;52.788;6.940;2023-04-03T07:24:15;2.50;99.90
53208;DHT22;39093;52.788;6.940;2023-04-03T07:26:42;2.20;99.90
53208;DHT22;39093;52.788;6.940;2023-04-03T07:29:10;2.30;99.90
53208;DHT22;39093;52.788;6.940;2023-04-03T07:31:39;2.40;99.90
53208;DHT22;39093;52.788;6.940;2023-04-03T07:34:06;2.40;99.90
53208;DHT22;39093;52.788;6.940;2023-04-03T07:36:33;2.40;99.90
53208;DHT22;39093;52.788;6.940;2023-04-03T07:39:00;2.50;99.90
53208;DHT22;39093;52.788;6.940;2023-04-03T07:41:27;2.60;99.90
53208;DHT22;39093;52.788;6.940;2023-04-03T07:43:55;2.60;99.90
53208;DHT22;39093;52.788;6.940;2023-04-03T07:46:23;2.60;99.90
53208;DHT22;39093;52.788;6.940;2023-04-03T07:48:50;2.60;99.90
53208;DHT22;39093;52.788;6.940;2023-04-03T07:51:17;2.70;99.90
53208;DHT22;39093;52.788;6.940;2023-04-03T07:53:44;2.50;99.90
53208;DHT22;39093;52.788;6.940;2023-04-03T07:56:11;2.80;99.90
53208;DHT22;39093;52.788;6.940;2023-04-03T07:58:38;2.80;99.90
53208;DHT22;39093;52.788;6.940;2023-04-03T08:01:05;3.00;99.90
53208;DHT22;39093;52.788;6.940;2023-04-03T08:03:32;3.00;99.90
53208;DHT22;39093;52.788;6.940;2023-04-03T08:06:04;3.20;99.90
53208;DHT22;39093;52.788;6.940;2023-04-03T08:08:34;3.00;99.90
53208;DHT22;39093;52.788;6.940;2023-04-03T08:11:02;3.10;99.90
53208;DHT22;39093;52.788;6.940;2023-04-03T08:13:29;3.30;99.90
53208;DHT22;39093;52.788;6.940;2023-04-03T08:15:57;3.20;99.90
53208;DHT22;39093;52.788;6.940;2023-04-03T08:18:25;3.60;99.90
53208;DHT22;39093;52.788;6.940;2023-04-03T08:20:53;3.30;99.90
53208;DHT22;39093;52.788;6.940;2023-04-03T08:23:20;3.80;99.90
53208;DHT22;39093;52.788;6.940;2023-04-03T08:25:47;3.50;99.90
53208;DHT22;39093;52.788;6.940;2023-04-03T08:28:14;3.60;99.90
53208;DHT22;39093;52.788;6.940;2023-04-03T08:30:42;3.70;99.90
53208;DHT22;39093;52.788;6.940;2023-04-03T08:33:10;3.70;99.90
53208;DHT22;39093;52.788;6.940;2023-04-03T08:35:40;3.80;99.90
53208;DHT22;39093;52.788;6.940;2023-04-03T08:38:09;3.90;99.90
53208;DHT22;39093;52.788;6.940;2023-04-03T08:40:37;4.00;99.90
53208;DHT22;39093;52.788;6.940;2023-04-03T08:45:52;4.30;99.90
53208;DHT22;39093;52.788;6.940;2023-04-03T08:51:03;4.30;99.90
53208;DHT22;39093;52.788;6.940;2023-04-03T08:53:40;4.30;99.60
53208;DHT22;39093;52.788;6.940;2023-04-03T08:56:10;4.40;99.90
53208;DHT22;39093;52.788;6.940;2023-04-03T08:58:56;4.40;99.30
53208;DHT22;39093;52.788;6.940;2023-04-03T09:01:33;4.50;99.50
53208;DHT22;39093;52.788;6.940;2023-04-03T09:04:02;4.50;99.70
53208;DHT22;39093;52.788;6.940;2023-04-03T09:06:32;4.60;99.90
53208;DHT22;39093;52.788;6.940;2023-04-03T09:09:13;4.70;99.90
53208;DHT22;39093;52.788;6.940;2023-04-03T09:20:19;5.00;98.10
53208;DHT22;39093;52.788;6.940;2023-04-03T09:22:48;5.00;98.70
53208;DHT22;39093;52.788;6.940;2023-04-03T09:25:23;5.30;98.70
53208;DHT22;39093;52.788;6.940;2023-04-03T09:27:52;5.20;99.80
53208;DHT22;39093;52.788;6.940;2023-04-03T09:30:21;5.40;98.90
53208;DHT22;39093;52.788;6.940;2023-04-03T09:32:52;5.50;99.70
53208;DHT22;39093;52.788;6.940;2023-04-03T09:35:28;5.80;99.00
53208;DHT22;39093;52.788;6.940;2023-04-03T09:40:42;6.20;97.60
53208;DHT22;39093;52.788;6.940;2023-04-03T09:43:26;6.70;95.30
53208;DHT22;39093;52.788;6.940;2023-04-03T09:45:53;6.60;94.00
53208;DHT22;39093;52.788;6.940;2023-04-03T09:48:23;6.80;94.60
53208;DHT22;39093;52.788;6.940;2023-04-03T09:53:27;7.00;92.40
53208;DHT22;39093;52.788;6.940;2023-04-03T09:55:54;7.10;91.70
53208;DHT22;39093;52.788;6.940;2023-04-03T09:58:30;7.30;93.20
53208;DHT22;39093;52.788;6.940;2023-04-03T10:01:32;7.50;91.10
53208;DHT22;39093;52.788;6.940;2023-04-03T10:06:34;7.80;88.30
53208;DHT22;39093;52.788;6.940;2023-04-03T10:09:26;7.90;86.80
53208;DHT22;39093;52.788;6.940;2023-04-03T10:12:09;8.00;86.40
53208;DHT22;39093;52.788;6.940;2023-04-03T10:15:01;8.10;85.90
53208;DHT22;39093;52.788;6.940;2023-04-03T10:17:44;8.20;87.90
53208;DHT22;39093;52.788;6.940;2023-04-03T10:20:41;8.40;82.40
53208;DHT22;39093;52.788;6.940;2023-04-03T10:23:27;8.70;81.10
53208;DHT22;39093;52.788;6.940;2023-04-03T10:26:36;9.00;80.10
53208;DHT22;39093;52.788;6.940;2023-04-03T10:34:37;9.40;78.40
53208;DHT22;39093;52.788;6.940;2023-04-03T10:40:23;9.60;77.80
53208;DHT22;39093;52.788;6.940;2023-04-03T10:45:55;9.80;75.00
53208;DHT22;39093;52.788;6.940;2023-04-03T10:48:34;9.90;73.90
53208;DHT22;39093;52.788;6.940;2023-04-03T10:57:04;10.50;73.60
53208;DHT22;39093;52.788;6.940;2023-04-03T11:00:04;10.70;72.50
53208;DHT22;39093;52.788;6.940;2023-04-03T11:02:36;11.10;71.10
53208;DHT22;39093;52.788;6.940;2023-04-03T11:05:53;11.50;72.70
53208;DHT22;39093;52.788;6.940;2023-04-03T11:07:55;11.80;69.50
53208;DHT22;39093;52.788;6.940;2023-04-03T11:13:08;12.40;68.60
53208;DHT22;39093;52.788;6.940;2023-04-03T11:15:37;12.90;66.70
53208;DHT22;39093;52.788;6.940;2023-04-03T11:18:13;13.40;67.50
53208;DHT22;39093;52.788;6.940;2023-04-03T11:20:47;13.90;64.90
53208;DHT22;39093;52.788;6.940;2023-04-03T11:23:29;14.40;66.00
53208;DHT22;39093;52.788;6.940;2023-04-03T11:26:19;14.70;63.30
53208;DHT22;39093;52.788;6.940;2023-04-03T11:28:53;15.10;59.10
53208;DHT22;39093;52.788;6.940;2023-04-03T11:37:01;15.80;59.50
53208;DHT22;39093;52.788;6.940;2023-04-03T11:39:33;15.60;57.40
53208;DHT22;39093;52.788;6.940;2023-04-03T11:47:56;16.90;53.80
53208;DHT22;39093;52.788;6.940;2023-04-03T11:58:19;17.40;54.30
53208;DHT22;39093;52.788;6.940;2023-04-03T12:08:28;17.80;53.50
53208;DHT22;39093;52.788;6.940;2023-04-03T12:13:40;18.10;51.80
53208;DHT22;39093;52.788;6.940;2023-04-03T12:19:29;18.00;52.60
53208;DHT22;39093;52.788;6.940;2023-04-03T12:22:10;18.30;52.90
53208;DHT22;39093;52.788;6.940;2023-04-03T12:24:56;18.80;52.50
53208;DHT22;39093;52.788;6.940;2023-04-03T12:27:28;18.80;49.70
53208;DHT22;39093;52.788;6.940;2023-04-03T12:32:50;18.70;51.50
53208;DHT22;39093;52.788;6.940;2023-04-03T12:39:10;19.00;50.00
53208;DHT22;39093;52.788;6.940;2023-04-03T12:42:05;19.20;51.00
53208;DHT22;39093;52.788;6.940;2023-04-03T12:44:54;19.40;50.20
53208;DHT22;39093;52.788;6.940;2023-04-03T12:47:35;19.60;50.50
53208;DHT22;39093;52.788;6.940;2023-04-03T12:50:17;19.70;50.00
53208;DHT22;39093;52.788;6.940;2023-04-03T12:55:29;19.90;48.80
53208;DHT22;39093;52.788;6.940;2023-04-03T12:57:56;19.90;48.00
53208;DHT22;39093;52.788;6.940;2023-04-03T13:00:33;19.90;49.20
53208;DHT22;39093;52.788;6.940;2023-04-03T13:03:05;20.30;48.00
53208;DHT22;39093;52.788;6.940;2023-04-03T13:05:33;20.50;47.60
53208;DHT22;39093;52.788;6.940;2023-04-03T13:08:07;20.60;48.10
53208;DHT22;39093;52.788;6.940;2023-04-03T13:10:55;20.90;46.70
53208;DHT22;39093;52.788;6.940;2023-04-03T13:13:24;20.50;46.90
53208;DHT22;39093;52.788;6.940;2023-04-03T13:15:53;20.40;47.60
53208;DHT22;39093;52.788;6.940;2023-04-03T13:21:01;20.10;46.00
53208;DHT22;39093;52.788;6.940;2023-04-03T13:23:30;20.10;46.10
53208;DHT22;39093;52.788;6.940;2023-04-03T13:25:59;19.90;47.90
53208;DHT22;39093;52.788;6.940;2023-04-03T13:28:31;19.80;46.90
53208;DHT22;39093;52.788;6.940;2023-04-03T13:33:58;20.00;46.00
53208;DHT22;39093;52.788;6.940;2023-04-03T13:36:38;20.30;45.60
53208;DHT22;39093;52.788;6.940;2023-04-03T13:41:51;21.00;46.30
53208;DHT22;39093;52.788;6.940;2023-04-03T13:46:52;21.10;46.00
53208;DHT22;39093;52.788;6.940;2023-04-03T13:49:36;20.30;46.10
53208;DHT22;39093;52.788;6.940;2023-04-03T13:52:26;19.90;45.70
53208;DHT22;39093;52.788;6.940;2023-04-03T13:55:03;20.10;45.20
53208;DHT22;39093;52.788;6.940;2023-04-03T13:57:53;20.80;45.70
53208;DHT22;39093;52.788;6.940;2023-04-03T14:03:02;21.20;44.30
53208;DHT22;39093;52.788;6.940;2023-04-03T14:05:29;21.50;45.00
53208;DHT22;39093;52.788;6.940;2023-04-03T14:07:56;21.60;43.90
53208;DHT22;39093;52.788;6.940;2023-04-03T14:10:23;21.90;44.60
53208;DHT22;39093;52.788;6.940;2023-04-03T14:12:50;21.80;44.00
53208;DHT22;39093;52.788;6.940;2023-04-03T14:15:24;21.50;43.60
53208;DHT22;39093;52.788;6.940;2023-04-03T14:17:52;21.70;43.90
53208;DHT22;39093;52.788;6.940;2023-04-03T14:20:22;21.30;44.30
53208;DHT22;39093;52.788;6.940;2023-04-03T14:22:49;21.70;43.50
53208;DHT22;39093;52.788;6.940;2023-04-03T14:25:18;21.80;44.00
53208;DHT22;39093;52.788;6.940;2023-04-03T14:27:48;22.30;43.60
53208;DHT22;39093;52.788;6.940;2023-04-03T14:30:23;21.90;41.40
53208;DHT22;39093;52.788;6.940;2023-04-03T14:32:51;22.00;42.10
53208;DHT22;39093;52.788;6.940;2023-04-03T14:35:18;21.40;41.70
53208;DHT22;39093;52.788;6.940;2023-04-03T14:37:46;21.60;42.80
53208;DHT22;39093;52.788;6.940;2023-04-03T14:40:17;21.10;43.20
53208;DHT22;39093;52.788;6.940;2023-04-03T14:42:44;21.00;43.10
53208;DHT22;39093;52.788;6.940;2023-04-03T14:45:12;21.10;43.30
53208;DHT22;39093;52.788;6.940;2023-04-03T14:47:48;20.60;43.40
53208;DHT22;39093;52.788;6.940;2023-04-03T14:50:24;20.10;44.10
53208;DHT22;39093;52.788;6.940;2023-04-03T14:52:53;19.40;44.30
53208;DHT22;39093;52.788;6.940;2023-04-03T14:55:23;18.80;45.20
53208;DHT22;39093;52.788;6.940;2023-04-03T14:57:51;18.50;46.00
53208;DHT22;39093;52.788;6.940;2023-04-03T15:00:20;18.50;45.60
53208;DHT22;39093;52.788;6.940;2023-04-03T15:02:48;17.80;46.10
53208;DHT22;39093;52.788;6.940;2023-04-03T15:05:20;17.70;46.50
53208;DHT22;39093;52.788;6.940;2023-04-03T15:07:51;18.00;46.70
53208;DHT22;39093;52.788;6.940;2023-04-03T15:10:24;18.40;45.60
53208;DHT22;39093;52.788;6.940;2023-04-03T15:12:52;18.90;45.20
53208;DHT22;39093;52.788;6.940;2023-04-03T15:15:21;18.60;45.10
53208;DHT22;39093;52.788;6.940;2023-04-03T15:17:53;18.70;45.40
53208;DHT22;39093;52.788;6.940;2023-04-03T15:20:23;18.70;44.10
53208;DHT22;39093;52.788;6.940;2023-04-03T15:22:51;17.90;44.00
53208;DHT22;39093;52.788;6.940;2023-04-03T15:25:18;18.00;45.50
53208;DHT22;39093;52.788;6.940;2023-04-03T15:27:45;18.10;46.50
53208;DHT22;39093;52.788;6.940;2023-04-03T15:30:17;17.60;46.00
53208;DHT22;39093;52.788;6.940;2023-04-03T15:32:44;17.50;45.70
53208;DHT22;39093;52.788;6.940;2023-04-03T15:35:12;17.70;46.00
53208;DHT22;39093;52.788;6.940;2023-04-03T15:37:39;17.50;45.50
53208;DHT22;39093;52.788;6.940;2023-04-03T15:40:08;16.90;46.10
53208;DHT22;39093;52.788;6.940;2023-04-03T15:42:35;16.70;47.60
53208;DHT22;39093;52.788;6.940;2023-04-03T15:45:04;16.80;47.90
53208;DHT22;39093;52.788;6.940;2023-04-03T15:47:31;17.10;46.90
53208;DHT22;39093;52.788;6.940;2023-04-03T15:49:58;17.40;46.40
53208;DHT22;39093;52.788;6.940;2023-04-03T15:52:25;17.10;47.10
53208;DHT22;39093;52.788;6.940;2023-04-03T15:54:52;17.40;46.40
53208;DHT22;39093;52.788;6.940;2023-04-03T15:57:19;17.10;45.70
53208;DHT22;39093;52.788;6.940;2023-04-03T15:59:46;17.10;46.10
53208;DHT22;39093;52.788;6.940;2023-04-03T16:02:13;16.50;46.70
53208;DHT22;39093;52.788;6.940;2023-04-03T16:04:40;16.00;48.10
53208;DHT22;39093;52.788;6.940;2023-04-03T16:07:08;15.90;47.80
53208;DHT22;39093;52.788;6.940;2023-04-03T16:09:36;15.80;47.90
53208;DHT22;39093;52.788;6.940;2023-04-03T16:12:03;15.70;47.70
53208;DHT22;39093;52.788;6.940;2023-04-03T16:14:30;15.20;48.50
53208;DHT22;39093;52.788;6.940;2023-04-03T16:16:58;15.10;48.20
53208;DHT22;39093;52.788;6.940;2023-04-03T16:19:30;15.60;48.70
53208;DHT22;39093;52.788;6.940;2023-04-03T16:21:58;16.00;48.80
53208;DHT22;39093;52.788;6.940;2023-04-03T16:24:24;16.50;48.20
53208;DHT22;39093;52.788;6.940;2023-04-03T16:26:51;16.70;46.70
53208;DHT22;39093;52.788;6.940;2023-04-03T16:29:20;16.40;47.00
53208;DHT22;39093;52.788;6.940;2023-04-03T16:31:46;16.10;47.40
53208;DHT22;39093;52.788;6.940;2023-04-03T16:34:14;15.40;48.50
53208;DHT22;39093;52.788;6.940;2023-04-03T16:36:42;14.80;49.60
53208;DHT22;39093;52.788;6.940;2023-04-03T16:39:08;14.10;50.40
53208;DHT22;39093;52.788;6.940;2023-04-03T16:41:41;13.70;51.00
53208;DHT22;39093;52.788;6.940;2023-04-03T16:44:07;13.40;52.00
53208;DHT22;39093;52.788;6.940;2023-04-03T16:46:34;13.10;53.00
53208;DHT22;39093;52.788;6.940;2023-04-03T16:49:02;12.90;53.10
53208;DHT22;39093;52.788;6.940;2023-04-03T16:51:29;12.70;54.00
53208;DHT22;39093;52.788;6.940;2023-04-03T16:53:59;12.60;53.60
53208;DHT22;39093;52.788;6.940;2023-04-03T16:56:26;12.30;54.00
53208;DHT22;39093;52.788;6.940;2023-04-03T16:58:56;12.20;54.90
53208;DHT22;39093;52.788;6.940;2023-04-03T17:01:23;12.10;54.20
53208;DHT22;39093;52.788;6.940;2023-04-03T17:03:50;12.00;54.60
53208;DHT22;39093;52.788;6.940;2023-04-03T17:06:19;11.90;54.50
53208;DHT22;39093;52.788;6.940;2023-04-03T17:08:48;11.80;55.50
53208;DHT22;39093;52.788;6.940;2023-04-03T17:11:16;11.70;55.50
53208;DHT22;39093;52.788;6.940;2023-04-03T17:13:43;11.60;56.00
53208;DHT22;39093;52.788;6.940;2023-04-03T17:16:12;11.50;55.90
53208;DHT22;39093;52.788;6.940;2023-04-03T17:18:40;11.40;56.10
53208;DHT22;39093;52.788;6.940;2023-04-03T17:21:08;11.20;55.90
53208;DHT22;39093;52.788;6.940;2023-04-03T17:23:36;11.10;56.50
53208;DHT22;39093;52.788;6.940;2023-04-03T17:26:04;11.00;56.50
53208;DHT22;39093;52.788;6.940;2023-04-03T17:28:31;10.90;57.80
53208;DHT22;39093;52.788;6.940;2023-04-03T17:31:00;10.80;57.50
53208;DHT22;39093;52.788;6.940;2023-04-03T17:33:28;10.70;57.30
53208;DHT22;39093;52.788;6.940;2023-04-03T17:35:57;10.60;57.40
53208;DHT22;39093;52.788;6.940;2023-04-03T17:38:25;10.40;57.90
53208;DHT22;39093;52.788;6.940;2023-04-03T17:40:56;10.30;58.10